Station THRO1 - 9063085 - Toledo, OH Image indicating link to RSS feed of recent meteorological observations for station THRO1


Conditions at THRO1 as of
(2:54 am EDT)
0654 GMT on 04/18/2026:
     

Click on the graph icon in the table below to see a time series plot of the last five days of that observation.

5-day plot - Wind Direction Wind Direction (WDIR): S ( 170 deg true )
5-day plot - Wind Speed Wind Speed (WSPD): 13.0 kts
5-day plot - Wind Gust Wind Gust (GST): 17.1 kts
5-day plot - Atmospheric Pressure Atmospheric Pressure (PRES):29.71 in
5-day plot - Air Temperature Air Temperature (ATMP): 68.2 °F
5-day plot - Dew Point Dew Point (DEWP): 51.4 °F
5-day plot - Wind Speed at 10 Meters Wind Speed at 10 meters (WSPD10M): 11.7 kts
5-day plot - Wind Speed at 20 Meters Wind Speed at 20 meters (WSPD20M): 13.6 kts
5-day plot -  Wind Speed, Wind Gust and Atmospheric Pressure Combined plot of Wind Speed, Gust, and Air Pressure
NOS Water Level Observation Network Water Level
Previous observations
TIME
(EDT)
5-day plot - Wind Direction
WDIR
 
5-day plot - Wind Speed
WSPD
kts
5-day plot - Wind Gust
GST
kts
5-day plot - Wave Height
WVHT
ft
5-day plot - Dominant Wave Period
DPD
sec
5-day plot - Average Wave Period
APD
sec
5-day plot - Mean Wave Direction
MWD
 
5-day plot - Atmospheric Pressure
PRES
in
5-day plot - Pressure Tendency
PTDY
in
5-day plot - Air Temperature
ATMP
°F
5-day plot - Water Temperature
WTMP
°F
5-day plot - Dew Point
DEWP
°F
5-day plot - Salinity
SAL
psu
5-day plot - Visibility
VIS
nmi
5-day plot - Tide (above MLLW)
TIDE
ft
2026-04-18 02:48 am S 14.0 15.9----29.72-------
2026-04-18 02:42 am S 14.0 15.9----29.72-------
2026-04-18 02:36 am S 14.0 18.1----29.72-------
2026-04-18 02:30 am S 13.0 15.9----29.72- 67.5- 51.4---
2026-04-18 02:24 am S 13.0 15.9----29.72- 67.8- 50.9---
2026-04-18 02:18 am S 12.0 15.0----29.73-------
2026-04-18 02:12 am S 11.1 15.0----29.73-------
2026-04-18 02:06 am S 12.0 14.0----29.73-------
2026-04-18 02:00 amSSE 9.9 14.0----29.73-0.11 66.9- 50.9---
2026-04-18 01:54 amSSE 11.1 15.0----29.74- 66.6- 51.3---
2026-04-18 01:48 amSSE 11.1 15.0----29.74-------
2026-04-18 01:42 amSSE 12.0 17.1----29.74-------
2026-04-18 01:36 amSSE 12.0 15.0----29.75-------
2026-04-18 01:30 amSSE 11.1 14.0----29.75- 65.7- 52.0---
2026-04-18 01:24 amSSE 11.1 14.0----29.76- 65.3- 52.3---
2026-04-18 01:18 amSSE 11.1 14.0----29.77-------
2026-04-18 01:12 amSSE 9.9 13.0----29.77-------
2026-04-18 01:06 amSSE 8.9 12.0----29.78-------
2026-04-18 01:00 amSSE 9.9 15.0----29.78-0.04 64.4- 53.1---
2026-04-18 12:54 amSSE 9.9 14.0----29.78- 64.4- 53.1---
2026-04-18 12:48 amSSE 11.1 15.0----29.78-------
2026-04-18 12:42 amSSE 9.9 12.0----29.78-------
2026-04-18 12:36 amSSE 8.0 12.0----29.79-------
2026-04-18 12:30 amSSE 8.0 11.1----29.79- 63.0- 54.0---
2026-04-18 12:24 amSSE 8.9 11.1----29.79- 62.4- 54.0---
2026-04-18 12:18 amSSE 8.0 12.0----29.80-------
2026-04-18 12:12 am SE 11.1 14.0----29.80-------
2026-04-18 12:06 amSSE 13.0 15.0----29.80-------
2026-04-18 12:00 am SE 13.0 15.9----29.80-0.03 62.6- 53.6---
2026-04-17 11:54 pm SE 14.0 15.9----29.80- 62.4- 53.6---
2026-04-17 11:48 pmSSE 13.0 15.0----29.82-------
2026-04-17 11:42 pmSSE 8.9 11.1----29.82-------
2026-04-17 11:36 pm SE 4.1 6.0----29.82-------
2026-04-17 11:30 pm SE 2.9 5.1----29.83- 61.3- 53.6---
2026-04-17 11:24 pm SE 2.9 7.0----29.83- 61.3- 53.2---
2026-04-17 11:18 pmESE 5.1 7.0----29.83-------
2026-04-17 11:12 pmESE 5.1 8.0----29.83-------
2026-04-17 11:06 pmESE 7.0 11.1----29.84-------
2026-04-17 11:00 pmESE 9.9 14.0----29.84+0.01 60.8- 52.2---
2026-04-17 10:54 pmESE 9.9 14.0----29.84- 60.8- 51.8---
2026-04-17 10:48 pmESE 8.0 11.1----29.84-------
2026-04-17 10:42 pmESE 8.0 11.1----29.84-------
2026-04-17 10:36 pmESE 8.9 11.1----29.84-------
2026-04-17 10:30 pmESE 7.0 9.9----29.84- 60.1- 51.3---
2026-04-17 10:24 pmESE 8.0 9.9----29.83- 60.1- 51.3---
2026-04-17 10:18 pmESE 8.0 11.1----29.83-------
2026-04-17 10:12 pmESE 9.9 12.0----29.83-------
2026-04-17 10:06 pmESE 8.9 12.0----29.83-------
2026-04-17 10:00 pmESE 8.9 13.0----29.82-0.04 59.9- 52.5---
2026-04-17 09:54 pmESE 8.0 12.0----29.82- 59.9- 52.5---
2026-04-17 09:48 pmESE 8.0 12.0----29.83- 59.9- 52.7---
2026-04-17 09:42 pmESE 9.9 12.0----29.83- 60.1- 52.7---
2026-04-17 09:36 pmESE 8.9 13.0----29.83- 60.1- 52.7---
2026-04-17 09:30 pmESE 8.9 15.0----29.83- 60.1- 53.2---
2026-04-17 09:24 pmESE 12.0 14.0----29.83- 60.3- 52.9---
2026-04-17 09:18 pmESE 11.1 14.0----29.83-------
2026-04-17 09:12 pmESE 11.1 15.0----29.83-------
2026-04-17 09:06 pmESE 11.1 14.0----29.84-------
2026-04-17 09:00 pmESE 13.0 15.0----29.83-0.06 61.2- 53.6---
2026-04-17 08:54 pmESE 11.1 15.0----29.83- 61.2- 53.4---
2026-04-17 08:48 pmESE 12.0 14.0----29.83-------
2026-04-17 08:42 pmESE 8.9 15.0----29.83-------
2026-04-17 08:36 pmESE 11.1 14.0----29.83-------
2026-04-17 08:30 pmESE 11.1 13.0----29.83- 60.6- 54.5---
2026-04-17 08:24 pmESE 9.9 13.0----29.83- 60.4- 54.3---
2026-04-17 08:18 pmESE 11.1 14.0----29.83-------
2026-04-17 08:12 pmESE 9.9 12.0----29.83-------
2026-04-17 08:06 pmESE 8.0 11.1----29.83-------
2026-04-17 08:00 pmESE 8.9 12.0----29.83-0.10 60.6- 53.8---
2026-04-17 07:54 pmESE 11.1 12.0----29.83- 61.2- 54.3---
2026-04-17 07:48 pmESE 8.9 13.0----29.84-------
2026-04-17 07:42 pmESE 11.1 13.0----29.84-------
2026-04-17 07:36 pmESE 12.0 13.0----29.84-------
2026-04-17 07:30 pmESE 8.9 12.0----29.84- 63.0- 55.8---
2026-04-17 07:24 pmESE 6.0 8.0----29.85- 63.9- 56.1---
2026-04-17 07:18 pm E 5.1 8.9----29.85-------
2026-04-17 07:12 pm E 6.0 7.0----29.85-------
2026-04-17 07:06 pmENE 4.1 5.1----29.86-------
2026-04-17 07:00 pm E 5.1 7.0----29.87-0.10 62.4- 56.3---
2026-04-17 06:54 pm E 6.0 8.0----29.87- 62.1- 56.3---
2026-04-17 06:48 pm E 7.0 8.0----29.87-------
2026-04-17 06:42 pm E 7.0 8.0----29.88-------
2026-04-17 06:36 pm E 5.1 6.0----29.88-------
2026-04-17 06:30 pm E 6.0 6.0----29.88- 62.8- 56.1---
2026-04-17 06:24 pm E 7.0 8.0----29.89- 62.6- 55.2---
2026-04-17 06:18 pm E 7.0 8.9----29.89-------
2026-04-17 06:12 pm E 8.0 8.0----29.89-------
2026-04-17 06:06 pm E 6.0 8.0----29.89-------
2026-04-17 06:00 pm E 6.0 8.0----29.89-0.09 63.5- 56.1---
2026-04-17 05:54 pm E 7.0 8.0----29.89- 63.9- 55.9---
2026-04-17 05:48 pm E 6.0 8.9----29.89-------
2026-04-17 05:42 pm E 8.0 8.9----29.89-------
2026-04-17 05:36 pm E 6.0 8.0----29.90-------
2026-04-17 05:30 pmENE 6.0 9.9----29.91- 62.4- 55.4---
2026-04-17 05:24 pmENE 8.0 11.1----29.91- 62.6- 55.2---
2026-04-17 05:18 pmENE 8.0 9.9----29.91-------
2026-04-17 05:12 pmENE 5.1 8.9----29.92-------
2026-04-17 05:06 pmENE 6.0 8.9----29.93-------
2026-04-17 05:00 pmENE 6.0 8.0----29.93-0.06 61.7- 55.2---
2026-04-17 04:54 pm NE 5.1 7.0----29.93- 61.5- 55.4---
2026-04-17 04:48 pmENE 5.1 8.0----29.94-------
2026-04-17 04:42 pmENE 7.0 9.9----29.95-------
2026-04-17 04:36 pmENE 6.0 9.9----29.95-------
2026-04-17 04:30 pmENE 8.0 9.9----29.96- 60.3- 53.8---
2026-04-17 04:24 pmENE 6.0 9.9----29.96- 60.3- 54.0---
2026-04-17 04:18 pmENE 8.0 11.1----29.96-------
2026-04-17 04:12 pmENE 5.1 12.0----29.96-------
2026-04-17 04:06 pmENE 6.0 9.9----29.96-------
2026-04-17 04:00 pmENE 8.0 11.1----29.97-0.05 59.7- 53.4---
2026-04-17 03:54 pmENE 8.9 9.9----29.97- 60.1- 53.8---
2026-04-17 03:48 pmENE 8.9 9.9----29.97-------
2026-04-17 03:42 pmENE 6.0 8.9----29.97-------
2026-04-17 03:36 pm NE 5.1 7.0----29.98-------
2026-04-17 03:30 pmENE 6.0 8.9----29.98- 60.3- 54.5---
2026-04-17 03:24 pmENE 5.1 9.9----29.97- 60.1- 54.5---
2026-04-17 03:18 pmENE 6.0 11.1----29.97-------
2026-04-17 03:12 pmENE 5.1 11.1----29.97-------
2026-04-17 03:06 pmENE 6.0 8.9----29.98-------
2026-04-17 03:00 pmENE 5.1 8.0----29.98-0.04 59.2- 54.1---
2026-04-17 02:54 pmENE 5.1 8.0----29.98- 59.2- 54.5---
2026-04-17 02:48 pmENE 6.0 8.9----29.98-------
2026-04-17 02:42 pmENE 5.1 9.9----29.98-------
2026-04-17 02:36 pmENE 5.1 8.9----29.98-------
2026-04-17 02:30 pmENE 6.0 8.0----29.98- 59.9- 55.4---
2026-04-17 02:24 pmENE 4.1 7.0----29.99- 59.9- 55.4---
2026-04-17 02:18 pmENE 4.1 6.0----29.99-------
2026-04-17 02:12 pm NE 4.1 6.0----29.99-------
2026-04-17 02:06 pm NE 5.1 8.0----29.99-------
2026-04-17 02:00 pm NE 4.1 7.0----29.99-0.04 59.2- 55.9---
2026-04-17 01:54 pmENE 5.1 8.0----29.99- 58.8- 55.9---
2026-04-17 01:48 pm NE 5.1 8.0----30.00-------
2026-04-17 01:42 pmENE 6.0 8.0----30.00-------
2026-04-17 01:36 pm NE 6.0 8.0----30.01-------
2026-04-17 01:30 pm NE 5.1 6.0----30.01- 58.5- 56.5---
2026-04-17 01:24 pm NE 4.1 7.0----30.01- 59.4- 56.7---
2026-04-17 01:18 pm NE 2.9 6.0----30.01-------
2026-04-17 01:12 pm NE 1.9 7.0----30.02-------
2026-04-17 01:06 pm NE 2.9 5.1----30.02-------
2026-04-17 01:00 pm NE 2.9 4.1----30.02+0.01 59.5- 57.0---
2026-04-17 12:54 pm NE 2.9 5.1----30.02- 60.1- 57.4---
2026-04-17 12:48 pm NE 2.9 5.1----30.02-------
2026-04-17 12:42 pm NE 1.9 4.1----30.02-------
2026-04-17 12:36 pmENE 2.9 6.0----30.02-------
2026-04-17 12:30 pm E 1.9 4.1----30.02- 61.2- 57.0---
2026-04-17 12:24 pm E 4.1 7.0----30.02- 60.3- 56.5---
2026-04-17 12:18 pmESE 2.9 5.1----30.02-------
2026-04-17 12:12 pmESE 2.9 5.1----30.03-------
2026-04-17 12:06 pm E 2.9 5.1----30.02-------
2026-04-17 12:00 pmSSE 2.9 6.0----30.02+0.03 59.7- 56.5---
2026-04-17 11:54 amSSE 5.1 7.0----30.03- 59.4- 56.1---
2026-04-17 11:48 amSSE 5.1 6.0----30.03-------
2026-04-17 11:42 amSSE 1.9 2.9----30.03-------
2026-04-17 11:36 am S 2.9 5.1----30.03-------
2026-04-17 11:30 am S 1.9 4.1----30.03- 58.1- 55.8---
2026-04-17 11:24 am S 2.9 5.1----30.03- 58.5- 57.0---
2026-04-17 11:00 amSSW 2.9 5.1----30.03+0.05 57.2- 56.7---
2026-04-17 10:54 amSSW 1.9 5.1----30.03- 56.8- 56.5---
2026-04-17 10:48 am S 2.9 5.1----30.03-------
2026-04-17 10:42 amSSE 2.9 4.1----30.02-------
2026-04-17 10:36 amSSE 1.9 4.1----30.02-------
2026-04-17 10:30 amESE 1.9 4.1----30.02- 55.0- 55.0---
2026-04-17 10:24 amSSW 1.0 4.1----30.01- 55.4- 55.4---
2026-04-17 10:18 am E 4.1 5.1----30.01-------
2026-04-17 10:12 amESE 5.1 6.0----30.01-------
2026-04-17 10:06 amESE 4.1 5.1----30.01-------
2026-04-17 10:00 am SE 1.0 2.9----30.01+0.04 54.7- 54.7---
2026-04-17 09:54 amESE 1.9 2.9----30.01- 53.8- 53.8---
2026-04-17 09:48 amENE 1.9 2.9----30.00-------
2026-04-17 09:42 amENE 1.9 4.1----30.00-------
2026-04-17 09:36 am E 4.1 5.1----30.00-------
2026-04-17 09:30 amENE 4.1 5.1----30.00- 53.4- 53.4---
2026-04-17 09:24 amENE 4.1 6.0----29.99- 53.1- 53.1---
2026-04-17 09:18 am E 5.1 6.0----29.99-------
2026-04-17 09:12 am E 5.1 6.0----29.99-------
2026-04-17 09:06 am E 5.1 7.0----29.99-------
2026-04-17 09:00 am E 7.0 7.0----29.99+0.04 53.1- 53.1---
2026-04-17 08:54 am E 5.1 6.0----29.99- 53.8- 53.8---
2026-04-17 08:48 am E 5.1 6.0----29.99-------
2026-04-17 08:42 amENE 4.1 5.1----29.99-------
2026-04-17 08:36 amENE 4.1 5.1----29.99-------
2026-04-17 08:30 amENE 4.1 5.1----29.99- 53.4- 53.4---
2026-04-17 08:24 am E 4.1 5.1----29.99- 53.6- 53.6---
2026-04-17 08:18 amENE 1.9 5.1----29.98-------
2026-04-17 08:12 amENE 4.1 6.0----29.98-------
2026-04-17 08:06 am E 5.1 8.0----29.98-------
2026-04-17 08:00 am E 5.1 7.0----29.98+0.04------
2026-04-17 07:54 am E 5.1 6.0----29.98-------
2026-04-17 07:48 amENE 2.9 4.1----29.97-------
2026-04-17 07:42 am NE 1.9 5.1----29.98-------
2026-04-17 07:36 am E 4.1 5.1----29.97-------
2026-04-17 07:30 amENE 2.9 4.1----29.97- 55.4- 55.4---
2026-04-17 07:24 amNNE 1.0 2.9----29.97- 55.4- 55.4---
2026-04-17 07:18 amENE 1.9 4.1----29.97-------
2026-04-17 07:12 am NE 1.9 2.9----29.97-------
2026-04-17 07:06 am- 0.0 1.9----29.97-------
2026-04-17 07:00 amENE 1.0 1.9----29.97+0.04 54.1- 54.0---
2026-04-17 06:54 am- 0.0 1.9----29.97- 54.1- 54.1---
2026-04-17 06:48 amNNE 1.0 1.9----29.97- 54.0- 53.8---
2026-04-17 06:42 am NW 1.0 1.0----29.96- 53.8- 53.4---
2026-04-17 06:36 am- 0.0 1.0----29.96- 53.6- 53.1---
2026-04-17 06:30 am- 0.0 1.9----29.96- 53.8- 53.4---
2026-04-17 06:24 amWNW 2.9 4.1----29.96- 54.0- 53.8---
2026-04-17 06:18 am NW 2.9 4.1----29.95-------
2026-04-17 06:12 am NW 4.1 5.1----29.95-------
2026-04-17 06:06 am NW 4.1 5.1----29.95-------
2026-04-17 06:00 amWNW 4.1 4.1----29.95+0.03 54.0- 53.4---
2026-04-17 05:54 amWNW 1.9 2.9----29.95- 54.0- 53.6---
2026-04-17 05:48 am W 2.9 4.1----29.95-------
2026-04-17 05:42 am W 2.9 2.9----29.95-------
2026-04-17 05:36 am W 1.9 1.9----29.95-------
2026-04-17 05:30 am W 1.9 2.9----29.95- 54.3- 53.8---
2026-04-17 05:24 amWNW 1.9 2.9----29.94- 54.5- 53.8---
2026-04-17 05:18 amWNW 2.9 4.1----29.94-------
2026-04-17 05:12 amWNW 4.1 4.1----29.94-------
2026-04-17 05:06 amWNW 2.9 4.1----29.94-------
2026-04-17 05:00 am NW 4.1 5.1----29.94+0.02 54.9- 54.1---
2026-04-17 04:54 am NW 5.1 5.1----29.94- 54.9- 54.0---
2026-04-17 04:48 am NW 5.1 5.1----29.93-------
2026-04-17 04:42 amWNW 4.1 5.1----29.93-------
2026-04-17 04:36 amWNW 4.1 5.1----29.93-------
2026-04-17 04:30 amWNW 4.1 5.1----29.93-------
2026-04-17 04:24 amWNW 4.1 5.1----29.93-------
2026-04-17 04:18 amWNW 4.1 4.1----29.93-------
2026-04-17 04:12 amWNW 4.1 5.1----29.93-------
2026-04-17 04:06 amWNW 4.1 5.1----29.93-------
2026-04-17 04:00 amWNW 4.1 5.1----29.93+0.01 54.7- 53.8---
2026-04-17 03:54 amWNW 4.1 5.1----29.93- 54.5- 53.6---
2026-04-17 03:48 amWNW 5.1 6.0----29.93-------
2026-04-17 03:42 amWNW 5.1 6.0----29.93-------
2026-04-17 03:36 am W 5.1 5.1----29.93-------
2026-04-17 03:30 amWNW 4.1 5.1----29.92- 55.2- 54.0---
2026-04-17 03:24 amWNW 4.1 5.1----29.92- 55.4- 54.0---
2026-04-17 03:18 am W 5.1 6.0----29.92-------
2026-04-17 03:12 am W 5.1 6.0----29.92-------
2026-04-17 03:06 am W 5.1 6.0----29.93-------
2026-04-17 03:00 am W 4.1 6.0----29.93+0.02 55.6- 53.6---
2026-04-17 02:54 am W 5.1 6.0----29.93- 55.6- 53.8---